createdAt,value
2019-05-22T00:01:18.166Z,14.50
2019-05-22T00:03:56.567Z,14.50
2019-05-22T00:06:30.077Z,14.49
2019-05-22T00:08:59.172Z,14.44
2019-05-22T00:11:29.997Z,14.39
2019-05-22T00:14:00.632Z,14.34
2019-05-22T00:16:31.612Z,14.32
2019-05-22T00:19:01.387Z,14.32
2019-05-22T00:21:30.464Z,14.32
2019-05-22T00:24:00.184Z,14.30
2019-05-22T00:26:29.263Z,14.26
2019-05-22T00:28:59.433Z,14.24
2019-05-22T00:31:30.202Z,14.25
2019-05-22T00:34:00.210Z,14.20
2019-05-22T00:36:31.350Z,14.18
2019-05-22T00:39:00.745Z,14.13
2019-05-22T00:41:32.711Z,14.10
2019-05-22T00:44:01.915Z,14.05
2019-05-22T00:46:31.145Z,14.00
2019-05-22T00:49:01.861Z,14.00
2019-05-22T00:51:45.644Z,13.98
2019-05-22T00:54:21.886Z,13.96
2019-05-22T00:56:56.825Z,13.97
2019-05-22T00:59:31.796Z,13.95
2019-05-22T01:02:03.009Z,13.95
2019-05-22T01:04:38.945Z,13.95
2019-05-22T01:07:18.905Z,13.95
2019-05-22T01:09:51.963Z,13.94
2019-05-22T01:12:30.637Z,13.92
2019-05-22T01:15:06.399Z,13.91
2019-05-22T01:17:36.772Z,13.89
2019-05-22T01:20:09.957Z,13.87
2019-05-22T01:22:41.803Z,13.86
2019-05-22T01:25:14.439Z,13.86
2019-05-22T01:27:44.038Z,13.86
2019-05-22T01:30:19.517Z,13.83
2019-05-22T01:32:51.819Z,13.79
2019-05-22T01:35:29.275Z,13.75
2019-05-22T01:37:59.887Z,13.71
2019-05-22T01:40:41.545Z,13.64
2019-05-22T01:43:14.158Z,13.57
2019-05-22T01:45:52.501Z,13.49
2019-05-22T01:48:29.754Z,13.45
2019-05-22T01:50:58.855Z,13.39
2019-05-22T01:53:38.580Z,13.36
2019-05-22T01:56:11.395Z,13.37
2019-05-22T01:58:42.419Z,13.34
2019-05-22T02:01:18.678Z,13.34
2019-05-22T02:03:47.973Z,13.32
2019-05-22T02:06:19.522Z,13.32
2019-05-22T02:08:53.241Z,13.28
2019-05-22T02:11:25.546Z,13.26
2019-05-22T02:14:03.812Z,13.26
2019-05-22T02:16:34.389Z,13.23
2019-05-22T02:19:05.146Z,13.20
2019-05-22T02:21:35.789Z,13.19
2019-05-22T02:24:07.371Z,13.16
2019-05-22T02:26:37.059Z,13.14
2019-05-22T02:29:08.708Z,13.14
2019-05-22T02:31:39.447Z,13.13
2019-05-22T02:34:09.397Z,13.10
2019-05-22T02:36:40.702Z,13.08
2019-05-22T02:39:15.719Z,13.05
2019-05-22T02:41:48.449Z,13.03
2019-05-22T02:44:17.787Z,13.02
2019-05-22T02:46:47.229Z,13.05
2019-05-22T02:49:17.427Z,13.04
2019-05-22T02:51:47.881Z,13.00
2019-05-22T02:54:17.003Z,12.99
2019-05-22T02:56:46.189Z,12.95
2019-05-22T02:59:17.526Z,12.91
2019-05-22T03:01:47.013Z,12.88
2019-05-22T03:04:17.328Z,12.86
2019-05-22T03:06:46.413Z,12.81
2019-05-22T03:09:19.698Z,12.79
2019-05-22T03:11:59.191Z,12.78
2019-05-22T03:14:31.197Z,12.77
2019-05-22T03:17:03.032Z,12.75
2019-05-22T03:19:41.225Z,12.72
2019-05-22T03:22:24.359Z,12.68
2019-05-22T03:24:55.497Z,12.66
2019-05-22T03:27:38.827Z,12.63
2019-05-22T03:30:12.794Z,12.60
2019-05-22T03:32:44.550Z,12.53
2019-05-22T03:35:14.266Z,12.51
2019-05-22T03:37:43.746Z,12.46
2019-05-22T03:40:14.103Z,12.41
2019-05-22T03:42:43.911Z,12.38
2019-05-22T03:45:14.552Z,12.32
2019-05-22T03:47:43.974Z,12.29
2019-05-22T03:50:13.905Z,12.28
2019-05-22T03:52:43.562Z,12.28
2019-05-22T03:55:14.211Z,12.27
2019-05-22T03:57:44.586Z,12.25
2019-05-22T04:00:17.512Z,12.27
2019-05-22T04:02:49.740Z,12.30
2019-05-22T04:05:20.983Z,12.31
2019-05-22T04:07:52.679Z,12.29
2019-05-22T04:10:23.977Z,12.30
2019-05-22T04:12:53.731Z,12.29
2019-05-22T04:19:17.381Z,12.27
2019-05-22T04:21:47.330Z,12.28
2019-05-22T04:24:16.833Z,12.29
2019-05-22T04:26:46.935Z,12.28
2019-05-22T04:29:16.019Z,12.29
2019-05-22T04:31:56.789Z,12.24
2019-05-22T04:34:26.491Z,12.23
2019-05-22T04:36:55.680Z,12.23
2019-05-22T04:39:27.477Z,12.20
2019-05-22T04:41:58.970Z,12.14
2019-05-22T04:44:29.301Z,12.13
2019-05-22T04:46:58.390Z,12.12
2019-05-22T04:49:27.510Z,12.11
2019-05-22T04:51:56.600Z,12.16
2019-05-22T04:54:26.152Z,12.19
2019-05-22T04:56:55.422Z,12.16
2019-05-22T04:59:24.520Z,12.20
2019-05-22T05:01:53.970Z,12.16
2019-05-22T05:04:24.249Z,12.15
2019-05-22T05:06:53.783Z,12.14
2019-05-22T05:09:22.987Z,12.11
2019-05-22T05:11:52.357Z,12.10
2019-05-22T05:14:21.481Z,12.12
2019-05-22T05:16:50.623Z,12.10
2019-05-22T05:19:20.470Z,12.08
2019-05-22T05:21:49.540Z,12.06
2019-05-22T05:24:18.866Z,12.04
2019-05-22T05:26:48.084Z,12.03
2019-05-22T05:29:28.592Z,12.03
2019-05-22T05:31:59.009Z,12.03
2019-05-22T05:34:38.320Z,12.05
2019-05-22T05:37:09.757Z,12.03
2019-05-22T05:40:26.330Z,12.03
2019-05-22T05:42:55.601Z,12.01
2019-05-22T05:45:26.689Z,11.99
2019-05-22T05:47:57.863Z,12.00
2019-05-22T05:50:38.943Z,11.98
2019-05-22T05:52:59.920Z,11.97
2019-05-22T05:55:31.057Z,11.94
2019-05-22T05:58:28.632Z,11.92
2019-05-22T06:01:02.923Z,11.94
2019-05-22T06:03:39.269Z,11.92
2019-05-22T06:06:55.116Z,11.92
2019-05-22T06:09:27.377Z,11.95
2019-05-22T06:11:57.916Z,11.96
2019-05-22T06:14:29.206Z,11.93
2019-05-22T06:17:54.727Z,11.95
2019-05-22T06:20:24.119Z,11.96
2019-05-22T06:23:40.809Z,11.94
2019-05-22T06:26:12.227Z,11.96
2019-05-22T06:28:41.995Z,11.96
2019-05-22T06:31:16.537Z,11.98
2019-05-22T06:33:45.806Z,12.02
2019-05-22T06:36:20.194Z,12.05
2019-05-22T06:39:08.639Z,12.05
2019-05-22T06:41:39.273Z,12.06
2019-05-22T06:44:40.760Z,12.06
2019-05-22T06:47:17.608Z,12.05
2019-05-22T06:49:52.847Z,12.05
2019-05-22T06:52:22.651Z,12.04
2019-05-22T06:54:52.332Z,12.06
2019-05-22T06:57:34.959Z,12.07
2019-05-22T07:00:13.843Z,12.11
2019-05-22T07:02:39.620Z,12.11
2019-05-22T07:05:09.872Z,12.15
2019-05-22T07:07:39.449Z,12.14
2019-05-22T07:10:12.932Z,12.15
2019-05-22T07:12:43.798Z,12.19
2019-05-22T07:15:23.144Z,12.18
2019-05-22T07:17:58.860Z,12.21
2019-05-22T07:20:32.466Z,12.22
2019-05-22T07:23:04.081Z,12.22
2019-05-22T07:25:35.448Z,12.24
2019-05-22T07:28:04.788Z,12.25
2019-05-22T07:30:34.025Z,12.24
2019-05-22T07:33:03.231Z,12.23
2019-05-22T07:35:46.186Z,12.23
2019-05-22T07:38:03.752Z,12.25
2019-05-22T07:40:33.815Z,12.25
2019-05-22T07:43:03.022Z,12.24
2019-05-22T07:45:34.245Z,12.28
2019-05-22T07:48:04.762Z,12.29
2019-05-22T07:50:36.400Z,12.30
2019-05-22T07:53:07.375Z,12.30
2019-05-22T07:55:37.052Z,12.31
2019-05-22T07:58:11.981Z,12.27
2019-05-22T08:00:47.838Z,12.30
2019-05-22T08:03:17.012Z,12.32
2019-05-22T08:05:50.110Z,12.33
2019-05-22T08:08:21.120Z,12.33
2019-05-22T08:10:50.569Z,12.34
2019-05-22T08:13:19.974Z,12.35
2019-05-22T08:15:59.619Z,12.36
2019-05-22T08:18:41.712Z,12.37
2019-05-22T08:24:20.956Z,12.38
2019-05-22T08:26:54.464Z,12.42
2019-05-22T08:29:22.121Z,12.45
2019-05-22T08:31:53.465Z,12.46
2019-05-22T08:34:24.126Z,12.46
2019-05-22T08:36:54.117Z,12.47
2019-05-22T08:39:28.112Z,12.48
2019-05-22T08:41:58.059Z,12.49
2019-05-22T08:44:28.678Z,12.51
2019-05-22T08:46:59.658Z,12.51
2019-05-22T08:49:29.938Z,12.53
2019-05-22T08:51:59.752Z,12.55
2019-05-22T08:54:30.433Z,12.59
2019-05-22T08:57:00.375Z,12.62
2019-05-22T08:59:37.366Z,12.63
2019-05-22T09:02:12.595Z,12.65
2019-05-22T09:04:49.535Z,12.65
2019-05-22T09:07:19.168Z,12.65
2019-05-22T09:09:48.340Z,12.68
2019-05-22T09:12:17.425Z,12.70
2019-05-22T09:14:46.509Z,12.75
2019-05-22T09:17:15.865Z,12.80
2019-05-22T09:19:45.934Z,12.84
2019-05-22T09:22:15.575Z,12.88
2019-05-22T09:24:45.608Z,12.93
2019-05-22T09:27:18.514Z,12.90
2019-05-22T09:29:47.656Z,12.91
2019-05-22T09:32:17.106Z,12.91
2019-05-22T09:34:46.288Z,12.94
2019-05-22T09:37:15.386Z,12.96
2019-05-22T09:39:44.835Z,13.00
2019-05-22T09:42:14.834Z,13.03
2019-05-22T09:44:45.135Z,13.08
2019-05-22T09:47:15.133Z,13.12
2019-05-22T09:49:45.865Z,13.14
2019-05-22T09:52:14.940Z,13.16
2019-05-22T09:54:44.009Z,13.19
2019-05-22T09:57:16.449Z,13.21
2019-05-22T09:59:45.522Z,13.21
2019-05-22T10:02:14.775Z,13.24
2019-05-22T10:04:44.025Z,13.27
2019-05-22T10:07:13.120Z,13.27
2019-05-22T10:09:45.017Z,13.23
2019-05-22T10:12:14.197Z,13.14
2019-05-22T10:14:43.351Z,13.10
2019-05-22T10:17:22.111Z,13.08
2019-05-22T10:19:51.330Z,13.09
2019-05-22T10:22:21.196Z,13.10
2019-05-22T10:25:14.035Z,13.07
2019-05-22T10:27:27.639Z,13.07
2019-05-22T10:29:57.087Z,13.07
2019-05-22T10:32:32.222Z,13.06
2019-05-22T10:34:59.794Z,13.02
2019-05-22T10:37:29.468Z,13.00
2019-05-22T10:39:59.208Z,12.93
2019-05-22T10:42:28.365Z,12.93
2019-05-22T10:44:57.524Z,12.90
2019-05-22T10:47:27.331Z,12.95
2019-05-22T10:49:56.436Z,12.99
2019-05-22T10:52:27.413Z,13.03
2019-05-22T10:54:56.587Z,13.07
2019-05-22T10:57:26.397Z,13.09
2019-05-22T10:59:55.462Z,13.10
2019-05-22T11:02:25.317Z,13.10
2019-05-22T11:04:54.737Z,13.07
2019-05-22T11:07:25.681Z,13.02
2019-05-22T11:09:55.287Z,13.00
2019-05-22T11:12:27.425Z,12.97
2019-05-22T11:14:57.393Z,12.92
2019-05-22T11:17:26.975Z,12.89
2019-05-22T11:19:56.205Z,12.88
2019-05-22T11:22:26.262Z,12.86
2019-05-22T11:24:55.363Z,12.86
2019-05-22T11:27:25.155Z,12.87
2019-05-22T11:29:54.551Z,12.87
2019-05-22T11:32:29.870Z,12.85
2019-05-22T11:34:59.938Z,12.87
2019-05-22T11:37:30.923Z,12.87
2019-05-22T11:40:01.557Z,12.90
2019-05-22T11:42:46.031Z,12.91
2019-05-22T11:45:14.705Z,12.95
2019-05-22T11:47:49.391Z,12.98
2019-05-22T11:50:22.737Z,13.03
2019-05-22T11:52:52.002Z,13.07
2019-05-22T11:55:21.778Z,13.06
2019-05-22T11:57:51.821Z,13.09
2019-05-22T12:00:25.794Z,13.10
2019-05-22T12:02:56.414Z,13.09
2019-05-22T12:05:26.458Z,13.07
2019-05-22T12:07:55.623Z,13.07
2019-05-22T12:10:26.580Z,13.06
2019-05-22T12:12:56.122Z,13.07
2019-05-22T12:15:29.730Z,13.09
2019-05-22T12:17:59.643Z,13.13
2019-05-22T12:20:30.211Z,13.19
2019-05-22T12:22:59.773Z,13.27
2019-05-22T12:25:30.776Z,13.32
2019-05-22T12:28:00.050Z,13.37
2019-05-22T12:30:29.640Z,13.41
2019-05-22T12:33:00.037Z,13.46
2019-05-22T12:35:29.214Z,13.52
2019-05-22T12:37:59.263Z,13.51
2019-05-22T12:40:33.667Z,13.50
2019-05-22T12:43:04.120Z,13.51
2019-05-22T12:45:34.313Z,13.51
2019-05-22T12:48:06.990Z,13.53
2019-05-22T12:50:36.711Z,13.55
2019-05-22T12:53:08.029Z,13.62
2019-05-22T12:55:37.166Z,13.69
2019-05-22T12:58:07.060Z,13.69
2019-05-22T13:00:39.530Z,13.63
2019-05-22T13:03:09.079Z,13.65
2019-05-22T13:05:51.938Z,13.69
2019-05-22T13:08:21.821Z,13.70
2019-05-22T13:10:52.408Z,13.76
2019-05-22T13:13:22.049Z,13.81
2019-05-22T13:15:54.243Z,13.84
2019-05-22T13:18:25.680Z,13.84
2019-05-22T13:20:55.576Z,13.84
2019-05-22T13:23:28.894Z,13.90
2019-05-22T13:25:58.770Z,13.93
2019-05-22T13:28:30.422Z,13.95
2019-05-22T13:31:01.131Z,13.96
2019-05-22T13:33:31.575Z,14.01
2019-05-22T13:36:01.761Z,14.07
2019-05-22T13:38:30.835Z,14.08
2019-05-22T13:41:00.094Z,14.10
2019-05-22T13:43:29.892Z,14.06
2019-05-22T13:45:59.477Z,14.06
2019-05-22T13:48:28.788Z,14.05
2019-05-22T13:51:00.043Z,14.07
2019-05-22T13:53:30.083Z,14.06
2019-05-22T13:55:59.270Z,14.03
2019-05-22T13:58:29.716Z,14.03
2019-05-22T14:00:59.009Z,14.03
2019-05-22T14:03:28.538Z,14.06
2019-05-22T14:05:58.237Z,14.06
2019-05-22T14:08:28.168Z,14.12
2019-05-22T14:10:58.275Z,14.18
2019-05-22T14:13:27.812Z,14.25
2019-05-22T14:15:57.869Z,14.30
2019-05-22T14:18:27.498Z,14.36
2019-05-22T14:20:56.569Z,14.48
2019-05-22T14:23:25.635Z,14.58
2019-05-22T14:25:54.743Z,14.64
2019-05-22T14:28:25.422Z,14.64
2019-05-22T14:30:54.940Z,14.69
2019-05-22T14:33:28.060Z,14.73
2019-05-22T14:35:57.852Z,14.81
2019-05-22T14:38:27.470Z,14.86
2019-05-22T14:40:57.471Z,14.91
2019-05-22T14:43:26.919Z,14.98
2019-05-22T14:45:55.997Z,15.11
2019-05-22T14:48:25.097Z,15.21
2019-05-22T14:50:54.305Z,15.30
2019-05-22T14:53:23.355Z,15.41
2019-05-22T14:55:52.958Z,15.47
2019-05-22T14:58:23.435Z,15.54
2019-05-22T15:00:53.185Z,15.56
2019-05-22T15:03:22.985Z,15.61
2019-05-22T15:05:53.237Z,15.70
2019-05-22T15:08:22.324Z,15.76
2019-05-22T15:10:51.597Z,15.76
2019-05-22T15:13:21.515Z,15.79
2019-05-22T15:15:50.597Z,15.80
2019-05-22T15:18:19.704Z,15.83
2019-05-22T15:21:15.171Z,15.88
2019-05-22T15:23:44.941Z,15.92
2019-05-22T15:26:14.715Z,15.99
2019-05-22T15:28:43.979Z,16.08
2019-05-22T15:31:13.540Z,16.15
2019-05-22T15:33:43.132Z,16.28
2019-05-22T15:36:15.896Z,16.41
2019-05-22T15:38:46.195Z,16.51
2019-05-22T15:41:15.451Z,16.57
2019-05-22T15:43:52.534Z,16.61
2019-05-22T15:46:19.964Z,16.68
2019-05-22T15:48:50.706Z,16.77
2019-05-22T15:51:24.389Z,16.82
2019-05-22T15:53:58.006Z,16.91
2019-05-22T15:56:30.462Z,16.95
2019-05-22T15:59:01.009Z,17.01
2019-05-22T16:01:33.405Z,17.03
2019-05-22T16:04:02.693Z,17.04
2019-05-22T16:06:32.442Z,16.97
2019-05-22T16:09:04.135Z,16.97
2019-05-22T16:11:34.182Z,16.99
2019-05-22T16:14:03.781Z,17.01
2019-05-22T16:16:36.089Z,17.02
2019-05-22T16:19:09.009Z,17.03
2019-05-22T16:21:42.048Z,17.10
2019-05-22T16:24:11.953Z,17.10
2019-05-22T16:26:42.323Z,17.06
2019-05-22T16:29:12.723Z,17.02
2019-05-22T16:31:44.002Z,16.96
2019-05-22T16:34:14.679Z,16.90
2019-05-22T16:36:44.847Z,16.80
2019-05-22T16:39:17.140Z,16.77
2019-05-22T16:41:47.547Z,16.76
2019-05-22T16:44:16.880Z,16.73
2019-05-22T16:46:46.912Z,16.64
2019-05-22T16:49:17.009Z,16.55
2019-05-22T16:51:47.294Z,16.48
2019-05-22T16:54:20.301Z,16.45
2019-05-22T16:56:48.243Z,16.46
2019-05-22T16:59:18.781Z,16.43
2019-05-22T17:01:58.746Z,16.42
2019-05-22T17:04:19.505Z,16.35
2019-05-22T17:06:48.566Z,16.33
2019-05-22T17:09:18.931Z,16.30
2019-05-22T17:11:48.405Z,16.23
2019-05-22T17:14:18.995Z,16.17
2019-05-22T17:16:49.663Z,16.15
2019-05-22T17:19:27.210Z,16.10
2019-05-22T17:21:50.253Z,16.07
2019-05-22T17:24:21.371Z,15.99
2019-05-22T17:26:52.496Z,15.94
2019-05-22T17:29:21.600Z,15.88
2019-05-22T17:31:51.627Z,15.84
2019-05-22T17:34:36.561Z,15.82
2019-05-22T17:37:14.465Z,15.77
2019-05-22T17:39:46.730Z,15.70
2019-05-22T17:42:18.375Z,15.64
2019-05-22T17:44:49.685Z,15.58
2019-05-22T17:47:21.826Z,15.53
2019-05-22T17:49:51.703Z,15.49
2019-05-22T17:52:23.241Z,15.46
2019-05-22T17:54:54.149Z,15.43
2019-05-22T17:57:25.315Z,15.38
2019-05-22T17:59:55.825Z,15.32
2019-05-22T18:02:29.510Z,15.26
2019-05-22T18:04:58.599Z,15.21
2019-05-22T18:07:28.765Z,15.17
2019-05-22T18:09:57.836Z,15.15
2019-05-22T18:12:27.635Z,15.10
2019-05-22T18:14:57.002Z,15.05
2019-05-22T18:17:26.651Z,15.00
2019-05-22T18:19:55.943Z,14.94
2019-05-22T18:22:25.008Z,14.90
2019-05-22T18:24:54.060Z,14.84
2019-05-22T18:27:25.226Z,14.82
2019-05-22T18:29:54.199Z,14.78
2019-05-22T18:32:23.381Z,14.76
2019-05-22T18:34:52.457Z,14.73
2019-05-22T18:37:21.538Z,14.67
2019-05-22T18:39:51.095Z,14.64
2019-05-22T18:42:20.355Z,14.61
2019-05-22T18:44:49.349Z,14.54
2019-05-22T18:47:18.659Z,14.47
2019-05-22T18:49:47.729Z,14.44
2019-05-22T18:52:16.917Z,14.41
2019-05-22T18:54:45.979Z,14.37
2019-05-22T18:57:15.838Z,14.32
2019-05-22T18:59:45.432Z,14.28
2019-05-22T19:02:14.853Z,14.20
2019-05-22T19:04:44.003Z,14.15
2019-05-22T19:07:13.374Z,14.11
2019-05-22T19:09:42.477Z,14.03
2019-05-22T19:12:11.662Z,13.97
2019-05-22T19:14:40.811Z,13.93
2019-05-22T19:17:10.156Z,13.87
2019-05-22T19:19:39.125Z,13.81
2019-05-22T19:22:08.508Z,13.76
2019-05-22T19:24:37.628Z,13.72
2019-05-22T19:27:06.709Z,13.66
2019-05-22T19:29:35.778Z,13.61
2019-05-22T19:32:04.963Z,13.53
2019-05-22T19:34:34.026Z,13.49
2019-05-22T19:37:03.115Z,13.44
2019-05-22T19:39:32.182Z,13.38
2019-05-22T19:42:05.015Z,13.32
2019-05-22T19:44:32.243Z,13.27
2019-05-22T19:47:01.531Z,13.22
2019-05-22T19:49:31.191Z,13.17
2019-05-22T19:52:00.373Z,13.12
2019-05-22T19:54:29.638Z,13.09
2019-05-22T19:56:58.744Z,13.05
2019-05-22T19:59:27.868Z,13.00
2019-05-22T20:01:57.439Z,12.97
2019-05-22T20:04:26.999Z,12.92
2019-05-22T20:06:56.859Z,12.87
2019-05-22T20:09:27.148Z,12.83
2019-05-22T20:11:56.235Z,12.77
2019-05-22T20:14:26.088Z,12.71
2019-05-22T20:16:55.223Z,12.68
2019-05-22T20:19:24.589Z,12.64
2019-05-22T20:21:53.961Z,12.58
2019-05-22T20:24:23.022Z,12.54
2019-05-22T20:26:52.387Z,12.50
2019-05-22T20:29:22.049Z,12.45
2019-05-22T20:31:51.421Z,12.41
2019-05-22T20:34:20.605Z,12.34
2019-05-22T20:36:49.783Z,12.31
2019-05-22T20:39:20.023Z,12.26
2019-05-22T20:41:49.148Z,12.23
2019-05-22T20:44:19.622Z,12.18
2019-05-22T20:46:50.949Z,12.12
2019-05-22T20:49:20.041Z,12.08
2019-05-22T20:51:49.114Z,12.05
2019-05-22T20:54:18.505Z,12.01
2019-05-22T20:56:50.598Z,11.97
2019-05-22T20:59:21.341Z,11.95
2019-05-22T21:01:50.402Z,11.92
2019-05-22T21:04:20.453Z,11.90
2019-05-22T21:06:59.890Z,11.88
2019-05-22T21:09:28.155Z,11.85
2019-05-22T21:11:58.715Z,11.81
2019-05-22T21:14:28.687Z,11.77
2019-05-22T21:16:57.763Z,11.74
2019-05-22T21:19:29.669Z,11.72
2019-05-22T21:21:59.631Z,11.67
2019-05-22T21:24:28.820Z,11.62
2019-05-22T21:26:57.896Z,11.57
2019-05-22T21:29:27.549Z,11.54
2019-05-22T21:31:56.617Z,11.50
2019-05-22T21:34:26.064Z,11.46
2019-05-22T21:36:55.239Z,11.44
2019-05-22T21:39:24.416Z,11.42
2019-05-22T21:41:53.885Z,11.40
2019-05-22T21:44:23.279Z,11.40
2019-05-22T21:46:52.729Z,11.38
2019-05-22T21:49:23.479Z,11.35
2019-05-22T21:51:52.552Z,11.33
2019-05-22T21:54:21.734Z,11.30
2019-05-22T21:56:51.179Z,11.27
2019-05-22T21:59:20.283Z,11.25
2019-05-22T22:01:53.885Z,11.22
2019-05-22T22:04:31.385Z,11.18
2019-05-22T22:07:01.818Z,11.15
2019-05-22T22:09:32.561Z,11.11
2019-05-22T22:12:02.298Z,11.10
2019-05-22T22:14:32.358Z,11.06
2019-05-22T22:17:02.406Z,11.04
2019-05-22T22:19:32.772Z,11.01
2019-05-22T22:22:02.712Z,10.98
2019-05-22T22:24:32.392Z,10.95
2019-05-22T22:27:01.655Z,10.90
2019-05-22T22:29:31.898Z,10.88
2019-05-22T22:32:01.172Z,10.83
2019-05-22T22:34:47.462Z,10.80
2019-05-22T22:37:17.538Z,10.78
2019-05-22T22:39:51.995Z,10.73
2019-05-22T22:42:25.099Z,10.69
2019-05-22T22:44:55.726Z,10.64
2019-05-22T22:47:37.023Z,10.61
2019-05-22T22:50:08.118Z,10.56
2019-05-22T22:52:39.058Z,10.51
2019-05-22T22:55:10.983Z,10.46
2019-05-22T22:57:41.058Z,10.40
2019-05-22T23:00:13.067Z,10.36
2019-05-22T23:02:43.837Z,10.30
2019-05-22T23:05:13.051Z,10.26
2019-05-22T23:07:43.409Z,10.21
2019-05-22T23:10:14.652Z,10.18
2019-05-22T23:12:43.707Z,10.15
2019-05-22T23:15:18.305Z,10.10
2019-05-22T23:17:46.637Z,10.07
2019-05-22T23:20:14.125Z,10.03
2019-05-22T23:22:41.593Z,10.00
2019-05-22T23:25:10.800Z,9.98
2019-05-22T23:27:40.502Z,9.96
2019-05-22T23:30:10.854Z,9.94
2019-05-22T23:32:42.480Z,9.91
2019-05-22T23:35:13.032Z,9.89
2019-05-22T23:37:43.213Z,9.87
2019-05-22T23:40:14.326Z,9.86
2019-05-22T23:42:44.293Z,9.84
2019-05-22T23:45:16.875Z,9.83
2019-05-22T23:48:17.416Z,9.80
2019-05-22T23:50:48.361Z,9.80
2019-05-22T23:53:18.520Z,9.75
2019-05-22T23:55:48.788Z,9.74
2019-05-22T23:58:20.137Z,9.73
